sensor_id;sensor_type;location;lat;lon;timestamp;P1;durP1;ratioP1;P2;durP2;ratioP2
13014;SDS011;6573;57.696;11.950;2022-07-23T00:00:59;15.63;;;4.50;;
13014;SDS011;6573;57.696;11.950;2022-07-23T00:03:27;12.13;;;4.50;;
13014;SDS011;6573;57.696;11.950;2022-07-23T00:05:57;14.03;;;4.30;;
13014;SDS011;6573;57.696;11.950;2022-07-23T00:08:25;15.03;;;4.70;;
13014;SDS011;6573;57.696;11.950;2022-07-23T00:10:53;12.77;;;4.17;;
13014;SDS011;6573;57.696;11.950;2022-07-23T00:13:21;13.47;;;4.70;;
13014;SDS011;6573;57.696;11.950;2022-07-23T00:15:49;16.67;;;4.30;;
13014;SDS011;6573;57.696;11.950;2022-07-23T00:18:18;15.83;;;4.33;;
13014;SDS011;6573;57.696;11.950;2022-07-23T00:20:46;13.43;;;4.30;;
13014;SDS011;6573;57.696;11.950;2022-07-23T00:23:15;16.57;;;5.13;;
13014;SDS011;6573;57.696;11.950;2022-07-23T00:25:44;15.17;;;4.27;;
13014;SDS011;6573;57.696;11.950;2022-07-23T00:28:12;12.90;;;4.37;;
13014;SDS011;6573;57.696;11.950;2022-07-23T00:30:40;11.27;;;5.07;;
13014;SDS011;6573;57.696;11.950;2022-07-23T00:33:08;11.27;;;4.37;;
13014;SDS011;6573;57.696;11.950;2022-07-23T00:35:39;15.80;;;4.40;;
13014;SDS011;6573;57.696;11.950;2022-07-23T00:38:08;13.63;;;3.47;;
13014;SDS011;6573;57.696;11.950;2022-07-23T00:40:39;15.50;;;3.90;;
13014;SDS011;6573;57.696;11.950;2022-07-23T00:43:07;8.43;;;3.43;;
13014;SDS011;6573;57.696;11.950;2022-07-23T00:45:35;10.10;;;3.10;;
13014;SDS011;6573;57.696;11.950;2022-07-23T00:48:04;7.57;;;2.87;;
13014;SDS011;6573;57.696;11.950;2022-07-23T00:50:32;8.73;;;2.80;;
13014;SDS011;6573;57.696;11.950;2022-07-23T00:53:00;7.83;;;2.83;;
13014;SDS011;6573;57.696;11.950;2022-07-23T00:55:29;6.97;;;2.60;;
13014;SDS011;6573;57.696;11.950;2022-07-23T00:57:59;10.03;;;3.17;;
13014;SDS011;6573;57.696;11.950;2022-07-23T01:00:28;10.33;;;2.23;;
13014;SDS011;6573;57.696;11.950;2022-07-23T01:02:56;5.60;;;2.00;;
13014;SDS011;6573;57.696;11.950;2022-07-23T01:05:25;6.00;;;2.30;;
13014;SDS011;6573;57.696;11.950;2022-07-23T01:07:53;6.40;;;1.83;;
13014;SDS011;6573;57.696;11.950;2022-07-23T01:10:22;3.13;;;1.90;;
13014;SDS011;6573;57.696;11.950;2022-07-23T01:13:02;4.07;;;1.97;;
13014;SDS011;6573;57.696;11.950;2022-07-23T01:15:32;3.83;;;1.63;;
13014;SDS011;6573;57.696;11.950;2022-07-23T01:18:01;4.23;;;1.60;;
13014;SDS011;6573;57.696;11.950;2022-07-23T01:20:30;2.37;;;1.33;;
13014;SDS011;6573;57.696;11.950;2022-07-23T01:23:01;4.67;;;2.00;;
13014;SDS011;6573;57.696;11.950;2022-07-23T01:25:29;3.90;;;1.83;;
13014;SDS011;6573;57.696;11.950;2022-07-23T01:27:57;2.60;;;1.50;;
13014;SDS011;6573;57.696;11.950;2022-07-23T01:30:25;2.20;;;1.10;;
13014;SDS011;6573;57.696;11.950;2022-07-23T01:32:53;2.53;;;1.20;;
13014;SDS011;6573;57.696;11.950;2022-07-23T01:35:21;2.07;;;1.10;;
13014;SDS011;6573;57.696;11.950;2022-07-23T01:37:49;3.73;;;1.10;;
13014;SDS011;6573;57.696;11.950;2022-07-23T01:40:19;5.00;;;1.10;;
13014;SDS011;6573;57.696;11.950;2022-07-23T01:42:48;1.50;;;1.00;;
13014;SDS011;6573;57.696;11.950;2022-07-23T01:45:16;3.30;;;1.00;;
13014;SDS011;6573;57.696;11.950;2022-07-23T01:47:44;2.07;;;0.80;;
13014;SDS011;6573;57.696;11.950;2022-07-23T01:50:13;1.70;;;0.83;;
13014;SDS011;6573;57.696;11.950;2022-07-23T01:52:42;1.40;;;1.00;;
13014;SDS011;6573;57.696;11.950;2022-07-23T01:55:10;3.53;;;0.97;;
13014;SDS011;6573;57.696;11.950;2022-07-23T01:57:45;1.97;;;1.07;;
13014;SDS011;6573;57.696;11.950;2022-07-23T02:00:14;2.93;;;0.73;;
13014;SDS011;6573;57.696;11.950;2022-07-23T02:02:43;0.77;;;0.60;;
13014;SDS011;6573;57.696;11.950;2022-07-23T02:05:11;1.20;;;0.60;;
13014;SDS011;6573;57.696;11.950;2022-07-23T02:07:39;1.63;;;0.73;;
13014;SDS011;6573;57.696;11.950;2022-07-23T02:10:08;1.10;;;0.70;;
13014;SDS011;6573;57.696;11.950;2022-07-23T02:12:36;3.10;;;0.97;;
13014;SDS011;6573;57.696;11.950;2022-07-23T02:15:07;1.50;;;0.70;;
13014;SDS011;6573;57.696;11.950;2022-07-23T02:17:35;3.30;;;0.50;;
13014;SDS011;6573;57.696;11.950;2022-07-23T02:20:05;2.03;;;0.70;;
13014;SDS011;6573;57.696;11.950;2022-07-23T02:22:34;1.13;;;0.70;;
13014;SDS011;6573;57.696;11.950;2022-07-23T02:25:03;1.07;;;0.70;;
13014;SDS011;6573;57.696;11.950;2022-07-23T02:27:32;0.50;;;0.50;;
13014;SDS011;6573;57.696;11.950;2022-07-23T02:30:00;0.73;;;0.70;;
13014;SDS011;6573;57.696;11.950;2022-07-23T02:32:30;1.70;;;0.80;;
13014;SDS011;6573;57.696;11.950;2022-07-23T02:34:59;0.83;;;0.70;;
13014;SDS011;6573;57.696;11.950;2022-07-23T02:37:27;1.30;;;0.70;;
13014;SDS011;6573;57.696;11.950;2022-07-23T02:39:55;0.73;;;0.57;;
13014;SDS011;6573;57.696;11.950;2022-07-23T02:42:23;1.13;;;0.53;;
13014;SDS011;6573;57.696;11.950;2022-07-23T02:44:52;5.40;;;4.67;;
13014;SDS011;6573;57.696;11.950;2022-07-23T02:47:20;0.60;;;0.60;;
13014;SDS011;6573;57.696;11.950;2022-07-23T02:49:49;1.13;;;0.80;;
13014;SDS011;6573;57.696;11.950;2022-07-23T02:52:17;0.47;;;0.47;;
13014;SDS011;6573;57.696;11.950;2022-07-23T02:54:45;0.73;;;0.70;;
13014;SDS011;6573;57.696;11.950;2022-07-23T02:57:14;0.70;;;0.57;;
13014;SDS011;6573;57.696;11.950;2022-07-23T02:59:42;2.47;;;0.80;;
13014;SDS011;6573;57.696;11.950;2022-07-23T03:02:10;0.60;;;0.60;;
13014;SDS011;6573;57.696;11.950;2022-07-23T03:04:38;0.70;;;0.70;;
13014;SDS011;6573;57.696;11.950;2022-07-23T03:07:10;1.20;;;0.80;;
13014;SDS011;6573;57.696;11.950;2022-07-23T03:09:38;1.00;;;0.77;;
13014;SDS011;6573;57.696;11.950;2022-07-23T03:12:06;1.00;;;0.90;;
13014;SDS011;6573;57.696;11.950;2022-07-23T03:14:39;0.63;;;0.63;;
13014;SDS011;6573;57.696;11.950;2022-07-23T03:17:08;1.17;;;0.80;;
13014;SDS011;6573;57.696;11.950;2022-07-23T03:19:36;2.67;;;0.90;;
13014;SDS011;6573;57.696;11.950;2022-07-23T03:22:05;1.00;;;0.73;;
13014;SDS011;6573;57.696;11.950;2022-07-23T03:24:35;1.73;;;0.90;;
13014;SDS011;6573;57.696;11.950;2022-07-23T03:27:21;0.93;;;0.90;;
13014;SDS011;6573;57.696;11.950;2022-07-23T03:29:49;1.50;;;0.90;;
13014;SDS011;6573;57.696;11.950;2022-07-23T03:32:18;0.70;;;0.70;;
13014;SDS011;6573;57.696;11.950;2022-07-23T03:34:46;1.10;;;0.87;;
13014;SDS011;6573;57.696;11.950;2022-07-23T03:37:15;0.70;;;0.70;;
13014;SDS011;6573;57.696;11.950;2022-07-23T03:39:45;0.80;;;0.80;;
13014;SDS011;6573;57.696;11.950;2022-07-23T03:42:13;1.07;;;0.90;;
13014;SDS011;6573;57.696;11.950;2022-07-23T03:44:42;1.83;;;0.80;;
13014;SDS011;6573;57.696;11.950;2022-07-23T03:47:10;1.07;;;0.80;;
13014;SDS011;6573;57.696;11.950;2022-07-23T03:49:38;1.03;;;0.80;;
13014;SDS011;6573;57.696;11.950;2022-07-23T03:52:06;1.30;;;0.90;;
13014;SDS011;6573;57.696;11.950;2022-07-23T03:54:34;0.90;;;0.90;;
13014;SDS011;6573;57.696;11.950;2022-07-23T03:57:04;2.37;;;1.20;;
13014;SDS011;6573;57.696;11.950;2022-07-23T03:59:33;1.67;;;0.70;;
13014;SDS011;6573;57.696;11.950;2022-07-23T04:02:01;0.77;;;0.70;;
13014;SDS011;6573;57.696;11.950;2022-07-23T04:04:29;1.50;;;0.97;;
13014;SDS011;6573;57.696;11.950;2022-07-23T04:06:57;1.37;;;0.90;;
13014;SDS011;6573;57.696;11.950;2022-07-23T04:09:25;1.00;;;0.90;;
13014;SDS011;6573;57.696;11.950;2022-07-23T04:11:54;0.87;;;0.80;;
13014;SDS011;6573;57.696;11.950;2022-07-23T04:14:23;0.70;;;0.70;;
13014;SDS011;6573;57.696;11.950;2022-07-23T04:16:51;2.93;;;0.97;;
13014;SDS011;6573;57.696;11.950;2022-07-23T04:19:20;1.43;;;0.90;;
13014;SDS011;6573;57.696;11.950;2022-07-23T04:21:48;0.90;;;0.83;;
13014;SDS011;6573;57.696;11.950;2022-07-23T04:24:16;1.23;;;0.90;;
13014;SDS011;6573;57.696;11.950;2022-07-23T04:26:44;1.43;;;0.80;;
13014;SDS011;6573;57.696;11.950;2022-07-23T04:29:13;1.40;;;0.90;;
13014;SDS011;6573;57.696;11.950;2022-07-23T04:31:42;0.93;;;0.80;;
13014;SDS011;6573;57.696;11.950;2022-07-23T04:34:11;1.00;;;0.80;;
13014;SDS011;6573;57.696;11.950;2022-07-23T04:36:39;1.53;;;0.90;;
13014;SDS011;6573;57.696;11.950;2022-07-23T04:39:07;3.50;;;0.80;;
13014;SDS011;6573;57.696;11.950;2022-07-23T04:41:36;0.60;;;0.60;;
13014;SDS011;6573;57.696;11.950;2022-07-23T04:44:04;0.60;;;0.60;;
13014;SDS011;6573;57.696;11.950;2022-07-23T04:46:32;2.40;;;0.60;;
13014;SDS011;6573;57.696;11.950;2022-07-23T04:49:04;0.70;;;0.60;;
13014;SDS011;6573;57.696;11.950;2022-07-23T04:51:33;0.87;;;0.63;;
13014;SDS011;6573;57.696;11.950;2022-07-23T04:54:01;1.63;;;0.60;;
13014;SDS011;6573;57.696;11.950;2022-07-23T04:56:29;1.67;;;0.70;;
13014;SDS011;6573;57.696;11.950;2022-07-23T04:58:57;0.73;;;0.73;;
13014;SDS011;6573;57.696;11.950;2022-07-23T05:01:26;2.20;;;0.80;;
13014;SDS011;6573;57.696;11.950;2022-07-23T05:03:54;1.13;;;0.87;;
13014;SDS011;6573;57.696;11.950;2022-07-23T05:06:24;0.80;;;0.80;;
13014;SDS011;6573;57.696;11.950;2022-07-23T05:08:52;0.90;;;0.80;;
13014;SDS011;6573;57.696;11.950;2022-07-23T05:11:21;1.27;;;0.80;;
13014;SDS011;6573;57.696;11.950;2022-07-23T05:13:53;0.87;;;0.50;;
13014;SDS011;6573;57.696;11.950;2022-07-23T05:16:21;0.70;;;0.70;;
13014;SDS011;6573;57.696;11.950;2022-07-23T05:18:49;1.33;;;0.80;;
13014;SDS011;6573;57.696;11.950;2022-07-23T05:21:17;1.63;;;0.80;;
13014;SDS011;6573;57.696;11.950;2022-07-23T05:23:47;0.63;;;0.63;;
13014;SDS011;6573;57.696;11.950;2022-07-23T05:26:15;2.47;;;0.90;;
13014;SDS011;6573;57.696;11.950;2022-07-23T05:28:43;2.50;;;0.60;;
13014;SDS011;6573;57.696;11.950;2022-07-23T05:31:15;0.60;;;0.60;;
13014;SDS011;6573;57.696;11.950;2022-07-23T05:33:44;0.50;;;0.50;;
13014;SDS011;6573;57.696;11.950;2022-07-23T05:36:12;1.00;;;0.70;;
13014;SDS011;6573;57.696;11.950;2022-07-23T05:38:40;0.90;;;0.60;;
13014;SDS011;6573;57.696;11.950;2022-07-23T05:41:10;1.60;;;0.80;;
13014;SDS011;6573;57.696;11.950;2022-07-23T05:43:38;0.87;;;0.70;;
13014;SDS011;6573;57.696;11.950;2022-07-23T05:46:06;0.60;;;0.50;;
13014;SDS011;6573;57.696;11.950;2022-07-23T05:48:34;0.50;;;0.50;;
13014;SDS011;6573;57.696;11.950;2022-07-23T05:51:02;1.30;;;0.70;;
13014;SDS011;6573;57.696;11.950;2022-07-23T05:53:33;1.10;;;0.70;;
13014;SDS011;6573;57.696;11.950;2022-07-23T05:56:02;0.60;;;0.60;;
13014;SDS011;6573;57.696;11.950;2022-07-23T05:58:32;1.00;;;0.80;;
13014;SDS011;6573;57.696;11.950;2022-07-23T06:01:03;0.70;;;0.70;;
13014;SDS011;6573;57.696;11.950;2022-07-23T06:03:31;1.80;;;0.60;;
13014;SDS011;6573;57.696;11.950;2022-07-23T06:05:59;0.70;;;0.60;;
13014;SDS011;6573;57.696;11.950;2022-07-23T06:08:27;0.80;;;0.80;;
13014;SDS011;6573;57.696;11.950;2022-07-23T06:10:55;2.47;;;0.50;;
13014;SDS011;6573;57.696;11.950;2022-07-23T06:13:23;1.20;;;0.70;;
13014;SDS011;6573;57.696;11.950;2022-07-23T06:15:53;0.70;;;0.60;;
13014;SDS011;6573;57.696;11.950;2022-07-23T06:18:21;0.70;;;0.63;;
13014;SDS011;6573;57.696;11.950;2022-07-23T06:20:49;1.50;;;0.60;;
13014;SDS011;6573;57.696;11.950;2022-07-23T06:23:25;1.17;;;0.80;;
13014;SDS011;6573;57.696;11.950;2022-07-23T06:25:53;0.40;;;0.40;;
13014;SDS011;6573;57.696;11.950;2022-07-23T06:28:21;0.70;;;0.60;;
13014;SDS011;6573;57.696;11.950;2022-07-23T06:30:49;2.00;;;0.70;;
13014;SDS011;6573;57.696;11.950;2022-07-23T06:33:20;1.23;;;0.50;;
13014;SDS011;6573;57.696;11.950;2022-07-23T06:35:48;0.83;;;0.60;;
13014;SDS011;6573;57.696;11.950;2022-07-23T06:38:16;1.60;;;0.60;;
13014;SDS011;6573;57.696;11.950;2022-07-23T06:40:45;0.70;;;0.50;;
13014;SDS011;6573;57.696;11.950;2022-07-23T06:43:13;0.53;;;0.53;;
13014;SDS011;6573;57.696;11.950;2022-07-23T06:45:41;0.87;;;0.40;;
13014;SDS011;6573;57.696;11.950;2022-07-23T06:48:09;0.40;;;0.40;;
13014;SDS011;6573;57.696;11.950;2022-07-23T06:50:39;0.53;;;0.30;;
13014;SDS011;6573;57.696;11.950;2022-07-23T06:53:07;1.00;;;0.60;;
13014;SDS011;6573;57.696;11.950;2022-07-23T06:55:35;0.70;;;0.60;;
13014;SDS011;6573;57.696;11.950;2022-07-23T06:58:05;0.97;;;0.60;;
13014;SDS011;6573;57.696;11.950;2022-07-23T07:00:33;1.53;;;0.60;;
13014;SDS011;6573;57.696;11.950;2022-07-23T07:03:01;1.83;;;0.70;;
13014;SDS011;6573;57.696;11.950;2022-07-23T07:05:30;1.33;;;0.80;;
13014;SDS011;6573;57.696;11.950;2022-07-23T07:08:00;0.93;;;0.80;;
13014;SDS011;6573;57.696;11.950;2022-07-23T07:10:28;0.80;;;0.77;;
13014;SDS011;6573;57.696;11.950;2022-07-23T07:12:56;0.83;;;0.60;;
13014;SDS011;6573;57.696;11.950;2022-07-23T07:15:24;0.70;;;0.70;;
13014;SDS011;6573;57.696;11.950;2022-07-23T07:17:52;2.63;;;1.00;;
13014;SDS011;6573;57.696;11.950;2022-07-23T07:20:20;2.03;;;0.70;;
13014;SDS011;6573;57.696;11.950;2022-07-23T07:22:49;1.40;;;1.00;;
13014;SDS011;6573;57.696;11.950;2022-07-23T07:25:19;1.03;;;0.67;;
13014;SDS011;6573;57.696;11.950;2022-07-23T07:27:47;2.30;;;0.90;;
13014;SDS011;6573;57.696;11.950;2022-07-23T07:30:15;1.13;;;0.87;;
13014;SDS011;6573;57.696;11.950;2022-07-23T07:32:43;1.47;;;0.93;;
13014;SDS011;6573;57.696;11.950;2022-07-23T07:35:22;0.70;;;0.70;;
13014;SDS011;6573;57.696;11.950;2022-07-23T07:37:51;0.80;;;0.70;;
13014;SDS011;6573;57.696;11.950;2022-07-23T07:40:21;0.70;;;0.60;;
13014;SDS011;6573;57.696;11.950;2022-07-23T07:42:50;0.90;;;0.80;;
13014;SDS011;6573;57.696;11.950;2022-07-23T07:45:19;1.40;;;0.77;;
13014;SDS011;6573;57.696;11.950;2022-07-23T07:47:49;1.60;;;0.80;;
13014;SDS011;6573;57.696;11.950;2022-07-23T07:50:18;3.90;;;0.93;;
13014;SDS011;6573;57.696;11.950;2022-07-23T07:52:47;2.67;;;0.80;;
13014;SDS011;6573;57.696;11.950;2022-07-23T07:55:15;0.90;;;0.60;;
13014;SDS011;6573;57.696;11.950;2022-07-23T07:57:45;1.17;;;0.70;;
13014;SDS011;6573;57.696;11.950;2022-07-23T08:00:14;1.90;;;0.77;;
13014;SDS011;6573;57.696;11.950;2022-07-23T08:02:43;1.10;;;0.70;;
13014;SDS011;6573;57.696;11.950;2022-07-23T08:05:13;1.27;;;0.80;;
13014;SDS011;6573;57.696;11.950;2022-07-23T08:07:41;1.00;;;0.70;;
13014;SDS011;6573;57.696;11.950;2022-07-23T08:10:10;1.83;;;0.90;;
13014;SDS011;6573;57.696;11.950;2022-07-23T08:12:39;1.83;;;0.67;;
13014;SDS011;6573;57.696;11.950;2022-07-23T08:15:15;2.07;;;0.80;;
13014;SDS011;6573;57.696;11.950;2022-07-23T08:17:45;1.53;;;0.70;;
13014;SDS011;6573;57.696;11.950;2022-07-23T08:20:15;0.60;;;0.60;;
13014;SDS011;6573;57.696;11.950;2022-07-23T08:22:47;1.20;;;0.80;;
13014;SDS011;6573;57.696;11.950;2022-07-23T08:25:19;1.03;;;0.53;;
13014;SDS011;6573;57.696;11.950;2022-07-23T08:27:49;1.93;;;0.70;;
13014;SDS011;6573;57.696;11.950;2022-07-23T08:30:19;1.53;;;0.63;;
13014;SDS011;6573;57.696;11.950;2022-07-23T08:32:51;0.60;;;0.60;;
13014;SDS011;6573;57.696;11.950;2022-07-23T08:35:22;0.57;;;0.57;;
13014;SDS011;6573;57.696;11.950;2022-07-23T08:37:52;0.60;;;0.60;;
13014;SDS011;6573;57.696;11.950;2022-07-23T08:40:20;2.50;;;0.70;;
13014;SDS011;6573;57.696;11.950;2022-07-23T08:42:50;1.33;;;0.60;;
13014;SDS011;6573;57.696;11.950;2022-07-23T08:45:20;0.63;;;0.63;;
13014;SDS011;6573;57.696;11.950;2022-07-23T08:47:51;2.13;;;0.77;;
13014;SDS011;6573;57.696;11.950;2022-07-23T08:50:20;0.57;;;0.50;;
13014;SDS011;6573;57.696;11.950;2022-07-23T08:52:50;1.83;;;0.60;;
13014;SDS011;6573;57.696;11.950;2022-07-23T08:55:20;1.60;;;0.60;;
13014;SDS011;6573;57.696;11.950;2022-07-23T08:57:50;0.70;;;0.70;;
13014;SDS011;6573;57.696;11.950;2022-07-23T09:00:21;1.30;;;0.80;;
13014;SDS011;6573;57.696;11.950;2022-07-23T09:02:50;1.63;;;0.73;;
13014;SDS011;6573;57.696;11.950;2022-07-23T09:05:19;0.90;;;0.77;;
13014;SDS011;6573;57.696;11.950;2022-07-23T09:08:06;1.17;;;0.60;;
13014;SDS011;6573;57.696;11.950;2022-07-23T09:10:43;1.87;;;0.70;;
13014;SDS011;6573;57.696;11.950;2022-07-23T09:13:32;2.10;;;0.60;;
13014;SDS011;6573;57.696;11.950;2022-07-23T09:16:05;0.90;;;0.50;;
13014;SDS011;6573;57.696;11.950;2022-07-23T09:18:36;0.80;;;0.80;;
13014;SDS011;6573;57.696;11.950;2022-07-23T09:21:13;1.50;;;1.13;;
13014;SDS011;6573;57.696;11.950;2022-07-23T09:23:43;0.77;;;0.50;;
13014;SDS011;6573;57.696;11.950;2022-07-23T09:26:18;2.30;;;1.00;;
13014;SDS011;6573;57.696;11.950;2022-07-23T09:29:04;1.50;;;0.80;;
13014;SDS011;6573;57.696;11.950;2022-07-23T09:31:43;1.73;;;0.70;;
13014;SDS011;6573;57.696;11.950;2022-07-23T09:34:14;2.97;;;1.20;;
13014;SDS011;6573;57.696;11.950;2022-07-23T09:36:45;2.43;;;1.20;;
13014;SDS011;6573;57.696;11.950;2022-07-23T09:39:13;3.00;;;1.00;;
13014;SDS011;6573;57.696;11.950;2022-07-23T09:41:44;0.83;;;0.70;;
13014;SDS011;6573;57.696;11.950;2022-07-23T09:44:14;2.43;;;0.93;;
13014;SDS011;6573;57.696;11.950;2022-07-23T09:46:45;2.87;;;1.10;;
13014;SDS011;6573;57.696;11.950;2022-07-23T09:49:16;3.53;;;0.90;;
13014;SDS011;6573;57.696;11.950;2022-07-23T09:51:47;3.57;;;0.80;;
13014;SDS011;6573;57.696;11.950;2022-07-23T09:54:24;2.63;;;0.90;;
13014;SDS011;6573;57.696;11.950;2022-07-23T09:56:54;2.80;;;0.90;;
13014;SDS011;6573;57.696;11.950;2022-07-23T09:59:25;2.37;;;0.93;;
13014;SDS011;6573;57.696;11.950;2022-07-23T10:01:56;2.57;;;0.90;;
13014;SDS011;6573;57.696;11.950;2022-07-23T10:04:26;3.03;;;1.03;;
13014;SDS011;6573;57.696;11.950;2022-07-23T10:06:56;0.60;;;0.60;;
13014;SDS011;6573;57.696;11.950;2022-07-23T10:09:27;0.97;;;0.80;;
13014;SDS011;6573;57.696;11.950;2022-07-23T10:11:57;0.67;;;0.67;;
13014;SDS011;6573;57.696;11.950;2022-07-23T10:14:31;1.43;;;0.93;;
13014;SDS011;6573;57.696;11.950;2022-07-23T10:17:02;4.00;;;1.40;;
13014;SDS011;6573;57.696;11.950;2022-07-23T10:19:31;1.23;;;0.90;;
13014;SDS011;6573;57.696;11.950;2022-07-23T10:22:00;4.00;;;1.20;;
13014;SDS011;6573;57.696;11.950;2022-07-23T10:27:30;1.37;;;0.70;;
13014;SDS011;6573;57.696;11.950;2022-07-23T10:30:09;2.07;;;0.60;;
13014;SDS011;6573;57.696;11.950;2022-07-23T10:32:43;2.03;;;0.80;;
13014;SDS011;6573;57.696;11.950;2022-07-23T10:35:18;0.67;;;0.50;;
13014;SDS011;6573;57.696;11.950;2022-07-23T10:37:53;1.70;;;0.77;;
13014;SDS011;6573;57.696;11.950;2022-07-23T10:40:24;1.40;;;1.30;;
13014;SDS011;6573;57.696;11.950;2022-07-23T10:42:52;0.50;;;0.50;;
13014;SDS011;6573;57.696;11.950;2022-07-23T10:45:23;1.60;;;0.70;;
13014;SDS011;6573;57.696;11.950;2022-07-23T10:47:56;0.60;;;0.60;;
13014;SDS011;6573;57.696;11.950;2022-07-23T10:50:40;0.90;;;0.70;;
13014;SDS011;6573;57.696;11.950;2022-07-23T10:53:10;3.10;;;0.60;;
13014;SDS011;6573;57.696;11.950;2022-07-23T10:55:47;3.40;;;1.77;;
13014;SDS011;6573;57.696;11.950;2022-07-23T10:58:18;0.70;;;0.70;;
13014;SDS011;6573;57.696;11.950;2022-07-23T11:00:48;0.90;;;0.77;;
13014;SDS011;6573;57.696;11.950;2022-07-23T11:03:32;0.90;;;0.50;;
13014;SDS011;6573;57.696;11.950;2022-07-23T11:06:04;2.40;;;0.90;;
13014;SDS011;6573;57.696;11.950;2022-07-23T11:08:33;1.53;;;0.73;;
13014;SDS011;6573;57.696;11.950;2022-07-23T11:11:08;1.47;;;0.70;;
13014;SDS011;6573;57.696;11.950;2022-07-23T11:13:44;0.90;;;0.70;;
13014;SDS011;6573;57.696;11.950;2022-07-23T11:16:18;0.80;;;0.70;;
13014;SDS011;6573;57.696;11.950;2022-07-23T11:18:56;0.60;;;0.60;;
13014;SDS011;6573;57.696;11.950;2022-07-23T11:21:43;1.47;;;0.63;;
13014;SDS011;6573;57.696;11.950;2022-07-23T11:24:16;0.60;;;0.60;;
13014;SDS011;6573;57.696;11.950;2022-07-23T11:26:53;1.77;;;0.60;;
13014;SDS011;6573;57.696;11.950;2022-07-23T11:29:42;2.00;;;0.73;;
13014;SDS011;6573;57.696;11.950;2022-07-23T11:32:30;1.03;;;0.70;;
13014;SDS011;6573;57.696;11.950;2022-07-23T11:35:25;2.43;;;1.00;;
13014;SDS011;6573;57.696;11.950;2022-07-23T11:38:02;0.80;;;0.80;;
13014;SDS011;6573;57.696;11.950;2022-07-23T11:40:33;2.00;;;0.70;;
13014;SDS011;6573;57.696;11.950;2022-07-23T11:43:03;1.20;;;1.00;;
13014;SDS011;6573;57.696;11.950;2022-07-23T11:45:35;1.40;;;0.80;;
13014;SDS011;6573;57.696;11.950;2022-07-23T11:48:05;1.77;;;0.80;;
13014;SDS011;6573;57.696;11.950;2022-07-23T11:50:36;1.30;;;0.80;;
13014;SDS011;6573;57.696;11.950;2022-07-23T11:53:05;1.13;;;0.83;;
13014;SDS011;6573;57.696;11.950;2022-07-23T11:55:33;1.70;;;0.50;;
13014;SDS011;6573;57.696;11.950;2022-07-23T11:58:01;3.80;;;0.70;;
13014;SDS011;6573;57.696;11.950;2022-07-23T12:00:30;0.73;;;0.63;;
13014;SDS011;6573;57.696;11.950;2022-07-23T12:03:06;1.57;;;0.73;;
13014;SDS011;6573;57.696;11.950;2022-07-23T12:05:36;1.10;;;0.90;;
13014;SDS011;6573;57.696;11.950;2022-07-23T12:08:06;1.10;;;1.00;;
13014;SDS011;6573;57.696;11.950;2022-07-23T12:10:36;1.13;;;0.70;;
13014;SDS011;6573;57.696;11.950;2022-07-23T12:13:06;0.60;;;0.60;;
13014;SDS011;6573;57.696;11.950;2022-07-23T12:15:37;2.00;;;0.77;;
13014;SDS011;6573;57.696;11.950;2022-07-23T12:18:09;5.27;;;1.40;;
13014;SDS011;6573;57.696;11.950;2022-07-23T12:20:40;1.30;;;1.00;;
13014;SDS011;6573;57.696;11.950;2022-07-23T12:23:11;2.10;;;0.80;;
13014;SDS011;6573;57.696;11.950;2022-07-23T12:25:46;1.30;;;1.10;;
13014;SDS011;6573;57.696;11.950;2022-07-23T12:28:16;2.00;;;1.30;;
13014;SDS011;6573;57.696;11.950;2022-07-23T12:30:46;4.50;;;0.90;;
13014;SDS011;6573;57.696;11.950;2022-07-23T12:33:18;3.20;;;1.00;;
13014;SDS011;6573;57.696;11.950;2022-07-23T12:35:52;2.40;;;1.30;;
13014;SDS011;6573;57.696;11.950;2022-07-23T12:38:22;1.20;;;1.10;;
13014;SDS011;6573;57.696;11.950;2022-07-23T12:40:51;1.17;;;0.90;;
13014;SDS011;6573;57.696;11.950;2022-07-23T12:43:21;3.97;;;1.17;;
13014;SDS011;6573;57.696;11.950;2022-07-23T12:45:52;1.33;;;1.07;;
13014;SDS011;6573;57.696;11.950;2022-07-23T12:48:23;1.20;;;1.10;;
13014;SDS011;6573;57.696;11.950;2022-07-23T12:50:54;3.00;;;1.30;;
13014;SDS011;6573;57.696;11.950;2022-07-23T12:53:26;2.73;;;1.07;;
13014;SDS011;6573;57.696;11.950;2022-07-23T12:55:57;3.37;;;1.63;;
13014;SDS011;6573;57.696;11.950;2022-07-23T12:58:44;2.90;;;1.20;;
13014;SDS011;6573;57.696;11.950;2022-07-23T13:01:26;5.43;;;1.10;;
13014;SDS011;6573;57.696;11.950;2022-07-23T13:04:00;3.83;;;2.37;;
13014;SDS011;6573;57.696;11.950;2022-07-23T13:06:39;1.87;;;0.90;;
13014;SDS011;6573;57.696;11.950;2022-07-23T13:09:11;1.77;;;1.10;;
13014;SDS011;6573;57.696;11.950;2022-07-23T13:11:41;3.43;;;1.10;;
13014;SDS011;6573;57.696;11.950;2022-07-23T13:14:09;3.03;;;1.20;;
13014;SDS011;6573;57.696;11.950;2022-07-23T13:16:39;2.07;;;0.90;;
13014;SDS011;6573;57.696;11.950;2022-07-23T13:19:08;1.57;;;0.97;;
13014;SDS011;6573;57.696;11.950;2022-07-23T13:21:39;1.00;;;0.90;;
13014;SDS011;6573;57.696;11.950;2022-07-23T13:24:10;6.67;;;5.67;;
13014;SDS011;6573;57.696;11.950;2022-07-23T13:26:39;4.17;;;2.00;;
13014;SDS011;6573;57.696;11.950;2022-07-23T13:29:08;1.17;;;1.07;;
13014;SDS011;6573;57.696;11.950;2022-07-23T13:31:37;1.50;;;1.10;;
13014;SDS011;6573;57.696;11.950;2022-07-23T13:34:06;4.53;;;1.33;;
13014;SDS011;6573;57.696;11.950;2022-07-23T13:36:34;1.43;;;1.10;;
13014;SDS011;6573;57.696;11.950;2022-07-23T13:39:04;1.60;;;1.23;;
13014;SDS011;6573;57.696;11.950;2022-07-23T13:41:35;4.30;;;1.50;;
13014;SDS011;6573;57.696;11.950;2022-07-23T13:44:04;1.30;;;1.07;;
13014;SDS011;6573;57.696;11.950;2022-07-23T13:46:33;1.63;;;1.00;;
13014;SDS011;6573;57.696;11.950;2022-07-23T13:49:01;1.40;;;1.30;;
13014;SDS011;6573;57.696;11.950;2022-07-23T13:51:50;2.80;;;1.23;;
13014;SDS011;6573;57.696;11.950;2022-07-23T13:54:21;1.63;;;1.40;;
13014;SDS011;6573;57.696;11.950;2022-07-23T13:56:49;2.30;;;1.23;;
13014;SDS011;6573;57.696;11.950;2022-07-23T13:59:19;1.70;;;0.97;;
13014;SDS011;6573;57.696;11.950;2022-07-23T14:01:52;1.70;;;1.20;;
13014;SDS011;6573;57.696;11.950;2022-07-23T14:04:40;2.17;;;1.10;;
13014;SDS011;6573;57.696;11.950;2022-07-23T14:07:09;1.40;;;1.30;;
13014;SDS011;6573;57.696;11.950;2022-07-23T14:09:38;2.80;;;1.30;;
13014;SDS011;6573;57.696;11.950;2022-07-23T14:12:07;1.20;;;1.13;;
13014;SDS011;6573;57.696;11.950;2022-07-23T14:14:37;1.20;;;1.10;;
13014;SDS011;6573;57.696;11.950;2022-07-23T14:17:05;2.90;;;1.30;;
13014;SDS011;6573;57.696;11.950;2022-07-23T14:19:37;1.20;;;1.10;;
13014;SDS011;6573;57.696;11.950;2022-07-23T14:22:05;2.70;;;1.30;;
13014;SDS011;6573;57.696;11.950;2022-07-23T14:24:33;2.73;;;1.33;;
13014;SDS011;6573;57.696;11.950;2022-07-23T14:27:03;1.23;;;1.10;;
13014;SDS011;6573;57.696;11.950;2022-07-23T14:29:32;1.67;;;1.47;;
13014;SDS011;6573;57.696;11.950;2022-07-23T14:32:00;5.37;;;1.93;;
13014;SDS011;6573;57.696;11.950;2022-07-23T14:34:29;2.60;;;1.17;;
13014;SDS011;6573;57.696;11.950;2022-07-23T14:37:00;1.20;;;1.10;;
13014;SDS011;6573;57.696;11.950;2022-07-23T14:39:29;1.40;;;1.30;;
13014;SDS011;6573;57.696;11.950;2022-07-23T14:41:58;4.13;;;1.33;;
13014;SDS011;6573;57.696;11.950;2022-07-23T14:44:27;1.37;;;1.17;;
13014;SDS011;6573;57.696;11.950;2022-07-23T14:46:56;1.83;;;1.40;;
13014;SDS011;6573;57.696;11.950;2022-07-23T14:49:24;5.43;;;1.70;;
13014;SDS011;6573;57.696;11.950;2022-07-23T14:51:53;3.90;;;1.10;;
13014;SDS011;6573;57.696;11.950;2022-07-23T14:54:22;2.80;;;1.43;;
13014;SDS011;6573;57.696;11.950;2022-07-23T14:56:52;1.30;;;1.20;;
13014;SDS011;6573;57.696;11.950;2022-07-23T14:59:20;2.80;;;1.83;;
13014;SDS011;6573;57.696;11.950;2022-07-23T15:01:51;1.30;;;1.20;;
13014;SDS011;6573;57.696;11.950;2022-07-23T15:04:20;2.23;;;1.17;;
13014;SDS011;6573;57.696;11.950;2022-07-23T15:07:04;1.67;;;1.27;;
13014;SDS011;6573;57.696;11.950;2022-07-23T15:09:32;2.10;;;1.03;;